Time;durP1;ratioP1;P1;durP2;ratioP2;P2;SDS_P1;SDS_P2;PMS_P1;PMS_P2;Temp;Humidity;BMP_temperature;BMP_pressure;BME280_temperature;BME280_humidity;BME280_pressure;Samples;Min_cycle;Max_cycle;Signal;HPM_P1;HPM_P2
2022/07/16 00:04:46;;;;;;;0.00;0.00;;;;;;;14.72;100.00;102044.16;10411973;28;20033;-76
2022/07/16 00:09:48;;;;;;;0.00;0.00;;;;;;;14.56;100.00;102038.50;10411446;28;20496;-76
2022/07/16 00:14:50;;;;;;;0.00;0.00;;;;;;;14.60;100.00;102040.38;10409527;28;20413;-76
2022/07/16 00:19:52;;;;;;;0.00;0.00;;;;;;;14.56;100.00;102037.66;10410652;28;20069;-75
2022/07/16 00:24:53;;;;;;;0.30;0.28;;;;;;;14.80;100.00;102034.84;10409431;28;20388;-77
2022/07/16 00:29:55;;;;;;;0.22;0.22;;;;;;;14.86;100.00;102040.22;10408875;28;20073;-77
2022/07/16 00:34:57;;;;;;;0.00;0.00;;;;;;;14.89;100.00;102037.72;10410765;28;20045;-76
2022/07/16 00:39:59;;;;;;;0.20;0.17;;;;;;;15.01;100.00;102025.88;10422210;28;20492;-76
2022/07/16 00:45:01;;;;;;;0.40;0.40;;;;;;;15.13;100.00;102026.19;10413177;28;20038;-76
2022/07/16 00:50:03;;;;;;;0.03;0.03;;;;;;;15.27;100.00;102028.25;10408915;28;20073;-76
2022/07/16 00:55:05;;;;;;;0.08;0.08;;;;;;;15.36;100.00;102018.97;10392279;28;20049;-77
2022/07/16 01:00:08;;;;;;;0.00;0.00;;;;;;;15.35;100.00;102027.59;10409457;28;20057;-77
2022/07/16 01:05:10;;;;;;;0.00;0.00;;;;;;;15.35;100.00;102017.19;10392438;28;20043;-78
2022/07/16 01:10:18;;;;;;;0.00;0.00;;;;;;;15.41;100.00;102032.06;10409201;28;20053;-77
2022/07/16 01:15:23;;;;;;;0.20;0.10;;;;;;;15.46;100.00;102020.06;10408202;28;20459;-77
2022/07/16 01:20:24;;;;;;;0.57;0.45;;;;;;;15.45;100.00;102023.50;10410057;28;20083;-74
2022/07/16 01:25:27;;;;;;;0.10;0.10;;;;;;;15.67;100.00;102024.88;10414100;28;20041;-74
2022/07/16 01:30:29;;;;;;;0.05;0.05;;;;;;;15.71;100.00;102020.63;10414077;28;20511;-75
2022/07/16 01:35:31;;;;;;;0.52;0.22;;;;;;;15.74;100.00;102020.72;10415015;28;20471;-74
2022/07/16 01:40:32;;;;;;;0.20;0.10;;;;;;;15.93;100.00;102006.44;10417475;28;20120;-75
2022/07/16 01:45:34;;;;;;;0.00;0.00;;;;;;;16.07;100.00;102008.44;10422142;28;20080;-75
2022/07/16 01:50:42;;;;;;;0.10;0.10;;;;;;;16.11;100.00;102010.25;10423167;28;20045;-75
2022/07/16 01:55:44;;;;;;;2.40;0.25;;;;;;;16.15;100.00;102001.69;10422691;28;20052;-75
2022/07/16 02:00:46;;;;;;;1.48;0.35;;;;;;;16.24;99.04;102000.97;10421113;28;20065;-75
2022/07/16 02:05:48;;;;;;;1.15;0.17;;;;;;;16.20;99.79;101994.84;10421962;28;20048;-75
2022/07/16 02:10:50;;;;;;;0.00;0.00;;;;;;;16.30;98.28;101998.50;10422169;28;20132;-75
2022/07/16 02:15:52;;;;;;;0.15;0.10;;;;;;;16.39;98.74;102001.28;10437420;28;20041;-74
2022/07/16 02:20:54;;;;;;;0.10;0.10;;;;;;;16.27;98.32;101995.84;10420639;28;20132;-75
2022/07/16 02:25:56;;;;;;;0.45;0.30;;;;;;;16.37;98.01;101987.38;10421401;28;20113;-75
2022/07/16 02:30:57;;;;;;;0.30;0.30;;;;;;;16.33;98.62;101990.78;10421124;28;20077;-75
2022/07/16 02:35:59;;;;;;;0.50;0.30;;;;;;;16.28;98.74;101995.88;10420850;28;20378;-75
2022/07/16 02:41:01;;;;;;;0.30;0.20;;;;;;;16.42;97.92;101985.72;10419778;28;20144;-75
2022/07/16 02:46:03;;;;;;;0.32;0.20;;;;;;;16.49;98.74;101981.53;10419153;28;20103;-74
2022/07/16 02:51:04;;;;;;;1.35;0.28;;;;;;;16.43;99.68;101977.06;10419283;28;20049;-75
2022/07/16 02:56:06;;;;;;;0.13;0.13;;;;;;;16.57;99.78;101979.94;10420300;28;20038;-75
2022/07/16 03:01:08;;;;;;;0.32;0.20;;;;;;;16.49;100.00;101979.78;10418726;28;20045;-75
2022/07/16 03:06:10;;;;;;;0.50;0.22;;;;;;;16.47;100.00;101983.22;10420099;28;20088;-75
2022/07/16 03:11:12;;;;;;;0.30;0.30;;;;;;;16.36;100.00;101990.81;10418535;28;20049;-74
2022/07/16 03:16:14;;;;;;;0.22;0.17;;;;;;;16.45;100.00;101995.34;10419288;28;20496;-75
2022/07/16 03:21:15;;;;;;;0.10;0.10;;;;;;;16.52;100.00;101998.91;10419053;28;20037;-75
2022/07/16 03:26:17;;;;;;;0.40;0.15;;;;;;;16.53;100.00;102004.13;10418967;28;20037;-74
2022/07/16 03:31:19;;;;;;;0.00;0.00;;;;;;;16.43;100.00;102007.41;10417771;28;20073;-74
2022/07/16 03:36:22;;;;;;;0.40;0.40;;;;;;;16.45;100.00;102017.00;10418495;28;20041;-74
2022/07/16 03:41:24;;;;;;;0.52;0.30;;;;;;;16.61;100.00;102025.09;10418489;28;20045;-75
2022/07/16 03:46:27;;;;;;;0.20;0.20;;;;;;;16.44;100.00;102030.84;10416963;28;20075;-74
2022/07/16 03:51:29;;;;;;;0.15;0.15;;;;;;;16.41;100.00;102036.00;10416875;28;20075;-75
2022/07/16 03:56:32;;;;;;;0.38;0.17;;;;;;;16.53;100.00;102037.09;10417984;28;20117;-75
2022/07/16 04:01:33;;;;;;;0.10;0.05;;;;;;;16.52;100.00;102048.34;10416356;28;20492;-75
2022/07/16 04:06:35;;;;;;;0.52;0.40;;;;;;;16.59;100.00;102047.59;10394493;28;20113;-75
2022/07/16 04:11:37;;;;;;;0.43;0.43;;;;;;;16.67;100.00;102059.03;10405815;28;20057;-74
2022/07/16 04:16:39;;;;;;;0.20;0.20;;;;;;;16.70;100.00;102069.50;10415853;28;20061;-74
2022/07/16 04:21:45;;;;;;;0.57;0.40;;;;;;;16.73;100.00;102077.38;10417127;28;20037;-74
2022/07/16 04:26:46;;;;;;;0.65;0.40;;;;;;;16.78;100.00;102080.94;10415544;28;20084;-74
2022/07/16 04:31:48;;;;;;;1.27;0.50;;;;;;;16.74;100.00;102099.06;10415387;28;20053;-75
2022/07/16 04:36:50;;;;;;;0.28;0.20;;;;;;;16.70;100.00;102100.75;10415382;28;20492;-74
2022/07/16 04:41:56;;;;;;;0.20;0.20;;;;;;;16.64;100.00;102104.09;10410819;28;20064;-77
2022/07/16 04:46:58;;;;;;;0.00;0.00;;;;;;;16.73;100.00;102106.00;10409542;28;20060;-76
2022/07/16 04:52:00;;;;;;;0.28;0.15;;;;;;;16.72;100.00;102114.63;10410305;28;20049;-76
2022/07/16 04:57:01;;;;;;;0.05;0.05;;;;;;;16.62;100.00;102123.13;10409202;28;20053;-77
2022/07/16 05:07:23;;;;;;;0.20;0.17;;;;;;;16.64;100.00;102131.84;10410373;28;20037;-76
2022/07/16 05:12:25;;;;;;;0.08;0.08;;;;;;;16.64;100.00;102135.31;10409194;28;20123;-76
2022/07/16 05:17:31;;;;;;;0.00;0.00;;;;;;;16.74;100.00;102138.97;10415105;28;20046;-76
2022/07/16 05:22:33;;;;;;;0.10;0.10;;;;;;;16.74;100.00;102148.53;10418166;28;20091;-77
2022/07/16 05:27:35;;;;;;;0.22;0.20;;;;;;;16.61;100.00;102157.78;10418330;28;20033;-77
2022/07/16 05:32:36;;;;;;;0.00;0.00;;;;;;;16.68;100.00;102158.81;10416467;28;20045;-77
2022/07/16 05:37:38;;;;;;;0.00;0.00;;;;;;;16.84;100.00;102160.00;10418201;28;20374;-78
2022/07/16 05:42:40;;;;;;;0.00;0.00;;;;;;;17.02;100.00;102167.31;10416096;28;20060;-78
2022/07/16 05:47:48;;;;;;;0.22;0.10;;;;;;;16.91;100.00;102161.88;10421843;28;20493;-78
2022/07/16 05:52:50;;;;;;;0.00;0.00;;;;;;;17.04;100.00;102163.88;10416312;28;20522;-78
2022/07/16 05:57:52;;;;;;;0.43;0.25;;;;;;;17.20;100.00;102174.59;10422116;28;20047;-76
2022/07/16 06:02:54;;;;;;;0.10;0.10;;;;;;;17.29;100.00;102185.19;10437711;28;20060;-76
2022/07/16 06:07:56;;;;;;;0.85;0.35;;;;;;;17.33;100.00;102178.31;10420899;28;20045;-76
2022/07/16 06:12:57;;;;;;;0.10;0.10;;;;;;;17.19;100.00;102172.84;10421754;28;20067;-76
2022/07/16 06:18:00;;;;;;;0.22;0.17;;;;;;;17.40;100.00;102172.34;10422316;28;20045;-76
2022/07/16 06:23:01;;;;;;;0.00;0.00;;;;;;;17.35;100.00;102174.88;10431471;28;20576;-76
2022/07/16 06:28:03;;;;;;;0.00;0.00;;;;;;;17.38;100.00;102180.16;10436581;28;20056;-74
2022/07/16 06:33:05;;;;;;;0.00;0.00;;;;;;;17.47;100.00;102178.53;10446364;28;20076;-76
2022/07/16 06:38:12;;;;;;;0.20;0.10;;;;;;;17.48;100.00;102185.50;10441552;28;20060;-75
2022/07/16 06:43:14;;;;;;;0.00;0.00;;;;;;;17.68;100.00;102194.56;10419527;28;20059;-74
2022/07/16 06:48:16;;;;;;;0.00;0.00;;;;;;;17.33;100.00;102207.81;10402894;28;20056;-75
2022/07/16 06:53:18;;;;;;;0.00;0.00;;;;;;;17.63;100.00;102204.03;10420379;28;20067;-74
2022/07/16 06:58:19;;;;;;;0.20;0.05;;;;;;;17.61;98.54;102208.31;10420084;28;20040;-74
2022/07/16 07:03:21;;;;;;;0.00;0.00;;;;;;;18.11;95.48;102206.56;10418867;28;20057;-75
2022/07/16 07:08:23;;;;;;;0.38;0.30;;;;;;;18.07;86.38;102219.56;10418162;28;20140;-75
2022/07/16 07:13:30;;;;;;;0.00;0.00;;;;;;;18.03;84.92;102222.97;10419433;28;20049;-75
2022/07/16 07:18:33;;;;;;;0.00;0.00;;;;;;;18.60;85.58;102222.94;10419241;28;20436;-75
2022/07/16 07:23:35;;;;;;;0.00;0.00;;;;;;;19.39;86.55;102221.28;10419056;28;20468;-75
2022/07/16 07:28:37;;;;;;;1.27;0.40;;;;;;;19.09;77.77;102219.22;10417673;28;20092;-74
2022/07/16 07:33:39;;;;;;;0.10;0.10;;;;;;;19.54;77.33;102244.09;10418787;28;20087;-74
2022/07/16 07:38:40;;;;;;;0.00;0.00;;;;;;;18.28;78.06;102246.81;10416934;28;20497;-74
2022/07/16 07:43:42;;;;;;;0.05;0.05;;;;;;;18.30;75.68;102249.47;10418113;28;20077;-74
2022/07/16 07:48:44;;;;;;;0.05;0.05;;;;;;;17.90;73.08;102260.09;10417365;28;20381;-75
2022/07/16 07:53:47;;;;;;;0.10;0.00;;;;;;;18.02;70.07;102267.28;10420204;28;20550;-74
2022/07/16 07:58:49;;;;;;;0.25;0.25;;;;;;;18.04;73.30;102258.63;10418497;28;20060;-74
2022/07/16 08:03:51;;;;;;;0.00;0.00;;;;;;;17.56;69.96;102280.31;10419202;28;20489;-74
2022/07/16 08:08:53;;;;;;;0.00;0.00;;;;;;;19.21;70.13;102271.59;10417331;28;20463;-74
2022/07/16 08:13:54;;;;;;;0.68;0.10;;;;;;;19.57;63.81;102277.22;10418145;28;20053;-74
2022/07/16 08:19:16;;;;;;;0.00;0.00;;;;;;;19.59;66.95;102284.22;10417187;28;20051;-74
2022/07/16 08:29:38;;;;;;;0.15;0.08;;;;;;;19.94;65.38;102291.56;10416469;28;20497;-74
2022/07/16 08:34:40;;;;;;;0.30;0.10;;;;;;;20.05;69.39;102286.41;10388826;28;20081;-75
2022/07/16 08:40:09;;;;;;;0.40;0.30;;;;;;;19.53;67.57;102299.84;10375309;28;20108;-75
2022/07/16 08:45:12;;;;;;;1.95;0.20;;;;;;;19.75;64.67;102294.84;10385953;28;20034;-74
2022/07/16 08:50:15;;;;;;;0.22;0.03;;;;;;;20.48;63.46;102301.56;10375632;28;20057;-74
2022/07/16 08:55:17;;;;;;;0.05;0.05;;;;;;;20.82;61.40;102304.41;10404922;28;20048;-75
2022/07/16 09:00:20;;;;;;;0.00;0.00;;;;;;;20.76;53.95;102325.34;10414541;28;20562;-76
2022/07/16 09:05:21;;;;;;;0.45;0.03;;;;;;;21.19;56.71;102309.84;10415969;28;20069;-75
2022/07/16 09:10:34;;;;;;;0.00;0.00;;;;;;;22.30;61.50;102309.19;10414123;28;20045;-74
2022/07/16 09:15:38;;;;;;;0.00;0.00;;;;;;;20.16;56.73;102333.59;10415634;28;20092;-75
2022/07/16 09:21:00;;;;;;;0.00;0.00;;;;;;;21.66;53.57;102325.75;10416360;28;20045;-75
2022/07/16 09:26:10;;;;;;;0.40;0.17;;;;;;;20.74;50.89;102337.53;10415479;28;20103;-76
2022/07/16 09:31:32;;;;;;;0.52;0.05;;;;;;;20.68;57.55;102350.56;10414903;28;20041;-75
2022/07/16 09:36:35;;;;;;;0.00;0.00;;;;;;;21.59;55.28;102344.97;10413582;28;20444;-75
2022/07/16 09:41:45;;;;;;;1.55;0.20;;;;;;;20.08;55.78;102356.19;10414812;28;20049;-75
2022/07/16 09:47:09;;;;;;;0.00;0.00;;;;;;;19.56;54.12;102359.97;10410239;28;20101;-75
2022/07/16 09:52:34;;;;;;;0.20;0.20;;;;;;;20.97;52.24;102357.75;10373816;28;20137;-75
2022/07/16 10:04:30;;;;;;;1.80;0.32;;;;;;;21.78;51.04;102354.63;10391085;28;20034;-76
2022/07/16 10:09:33;;;;;;;0.00;0.00;;;;;;;21.87;52.92;102362.50;10422912;28;20042;-75
2022/07/16 10:14:39;;;;;;;0.00;0.00;;;;;;;22.18;51.96;102367.81;10420555;28;20061;-75
2022/07/16 10:19:42;;;;;;;0.15;0.03;;;;;;;20.60;53.09;102382.81;10453502;28;20045;-75
2022/07/16 10:24:45;;;;;;;0.30;0.20;;;;;;;20.98;54.85;102388.34;10403620;28;20049;-75
2022/07/16 10:29:47;;;;;;;0.00;0.00;;;;;;;20.24;58.25;102389.50;10421154;28;20049;-75
2022/07/16 10:34:50;;;;;;;0.00;0.00;;;;;;;20.23;60.82;102392.97;10421105;28;20049;-74
2022/07/16 10:40:23;;;;;;;0.10;0.05;;;;;;;21.52;50.97;102391.25;10419433;28;20045;-75
2022/07/16 10:45:54;;;;;;;0.00;0.00;;;;;;;22.59;54.52;102389.72;10420543;28;20481;-75
2022/07/16 10:51:15;;;;;;;0.00;0.00;;;;;;;22.38;44.58;102394.94;10419139;28;20049;-75
2022/07/16 10:56:38;;;;;;;0.43;0.13;;;;;;;22.04;52.62;102401.03;10420273;28;20041;-76
2022/07/16 11:01:43;;;;;;;0.08;0.00;;;;;;;21.01;57.08;102409.31;10401060;28;20128;-77
2022/07/16 11:06:50;;;;;;;0.00;0.00;;;;;;;20.60;59.78;102419.47;10404353;28;20046;-77
2022/07/16 11:11:54;;;;;;;0.10;0.10;;;;;;;20.89;62.12;102417.97;10403334;28;20113;-77
2022/07/16 11:16:56;;;;;;;0.08;0.08;;;;;;;22.65;50.72;102405.47;10401476;28;20513;-77
2022/07/16 11:22:00;;;;;;;0.00;0.00;;;;;;;22.17;52.54;102413.28;10401349;28;20145;-77
2022/07/16 11:27:03;;;;;;;0.25;0.05;;;;;;;21.67;55.95;102421.91;10394809;28;20671;-77
2022/07/16 11:32:05;;;;;;;0.10;0.10;;;;;;;21.90;58.63;102416.72;10410965;28;20420;-77
2022/07/16 11:37:06;;;;;;;0.00;0.00;;;;;;;21.65;60.96;102426.28;10407425;28;20041;-78
2022/07/16 11:42:09;;;;;;;0.65;0.65;;;;;;;20.26;59.08;102434.88;10410113;28;20033;-77
2022/07/16 11:47:11;;;;;;;0.00;0.00;;;;;;;21.84;58.54;102424.59;10412860;28;20044;-77
2022/07/16 11:52:20;;;;;;;0.00;0.00;;;;;;;20.98;53.10;102438.13;10412574;28;20099;-78
2022/07/16 11:57:22;;;;;;;0.00;0.00;;;;;;;22.10;51.69;102416.78;10412947;28;20037;-77
2022/07/16 12:02:27;;;;;;;0.88;0.10;;;;;;;22.18;50.88;102425.56;10411994;28;20045;-77
2022/07/16 12:07:30;;;;;;;0.00;0.00;;;;;;;23.23;52.08;102423.78;10412035;28;20067;-78
2022/07/16 12:12:36;;;;;;;0.00;0.00;;;;;;;22.22;48.27;102429.06;10411760;28;20057;-77
2022/07/16 12:17:43;;;;;;;0.00;0.00;;;;;;;22.64;45.38;102429.13;10409927;28;20039;-77
2022/07/16 12:22:50;;;;;;;0.00;0.00;;;;;;;22.65;46.99;102425.63;10412094;28;20076;-78
2022/07/16 12:27:54;;;;;;;0.00;0.00;;;;;;;22.19;46.76;102429.94;10410189;28;20037;-78
2022/07/16 12:32:55;;;;;;;0.00;0.00;;;;;;;23.30;50.12;102430.78;10410480;28;20045;-77
2022/07/16 12:37:57;;;;;;;0.00;0.00;;;;;;;22.60;44.27;102444.00;10405768;28;20498;-77
2022/07/16 12:43:00;;;;;;;0.00;0.00;;;;;;;23.06;46.05;102437.81;10417036;28;20132;-78
2022/07/16 12:48:02;;;;;;;0.00;0.00;;;;;;;23.51;45.38;102440.38;10405792;28;20038;-78
2022/07/16 12:53:04;;;;;;;0.00;0.00;;;;;;;21.36;46.29;102458.44;10407499;28;20080;-78
2022/07/16 13:03:26;;;;;;;0.00;0.00;;;;;;;22.54;44.07;102449.25;10410410;28;20041;-77
2022/07/16 13:08:28;;;;;;;0.00;0.00;;;;;;;21.46;47.96;102452.41;10409028;28;20049;-78
2022/07/16 13:13:30;;;;;;;0.38;0.32;;;;;;;22.30;44.22;102455.34;10404062;28;20054;-77
2022/07/16 13:18:33;;;;;;;0.00;0.00;;;;;;;22.25;44.38;102462.31;10408223;28;20550;-78
2022/07/16 13:23:36;;;;;;;0.10;0.10;;;;;;;22.63;44.57;102453.63;10408585;28;20063;-78
2022/07/16 13:28:39;;;;;;;0.00;0.00;;;;;;;21.93;45.03;102455.25;10408222;28;20073;-77
2022/07/16 13:33:40;;;;;;;0.00;0.00;;;;;;;22.70;45.78;102455.38;10414696;28;20037;-77
2022/07/16 13:38:43;;;;;;;0.00;0.00;;;;;;;22.08;46.60;102460.50;10412944;28;20047;-78
2022/07/16 13:43:45;;;;;;;0.00;0.00;;;;;;;22.52;47.03;102455.38;10418299;28;20077;-77
2022/07/16 13:48:47;;;;;;;0.00;0.00;;;;;;;21.84;45.23;102462.22;10415938;28;20124;-79
2022/07/16 13:53:49;;;;;;;0.08;0.08;;;;;;;22.28;46.25;102451.81;10416490;28;20080;-78
2022/07/16 13:58:51;;;;;;;0.00;0.00;;;;;;;22.70;49.43;102460.63;10417201;28;20038;-78
2022/07/16 14:03:53;;;;;;;0.38;0.38;;;;;;;22.10;45.87;102460.53;10416566;28;20053;-77
2022/07/16 14:08:54;;;;;;;0.00;0.00;;;;;;;21.32;47.26;102475.91;10415194;28;20037;-77
2022/07/16 14:13:56;;;;;;;0.00;0.00;;;;;;;21.13;49.61;102474.91;10413580;28;20509;-78
2022/07/16 14:18:59;;;;;;;0.00;0.00;;;;;;;22.08;46.48;102460.50;10415812;28;20132;-77
2022/07/16 14:24:01;;;;;;;0.30;0.20;;;;;;;21.33;48.28;102472.41;10416367;28;20054;-78
2022/07/16 14:29:06;;;;;;;0.22;0.15;;;;;;;21.82;47.44;102448.22;10414821;28;20049;-78
2022/07/16 14:34:08;;;;;;;0.00;0.00;;;;;;;22.30;45.32;102453.56;10415058;28;20661;-78
2022/07/16 14:39:10;;;;;;;0.00;0.00;;;;;;;22.08;46.66;102454.41;10413647;28;20064;-78
2022/07/16 14:44:12;;;;;;;0.00;0.00;;;;;;;22.22;44.50;102441.31;10414580;28;20041;-78
2022/07/16 14:49:13;;;;;;;0.00;0.00;;;;;;;22.10;44.87;102439.53;10396062;28;20529;-78
2022/07/16 14:54:16;;;;;;;0.00;0.00;;;;;;;21.89;47.30;102437.72;10414124;28;20053;-78
2022/07/16 14:59:18;;;;;;;0.00;0.00;;;;;;;21.93;46.30;102444.75;10414836;28;20045;-78
2022/07/16 15:04:20;;;;;;;0.00;0.00;;;;;;;21.86;46.37;102439.47;10415147;28;20041;-78
2022/07/16 15:09:21;;;;;;;0.00;0.00;;;;;;;21.50;44.98;102451.53;10410761;28;20057;-77
2022/07/16 15:14:24;;;;;;;0.08;0.00;;;;;;;21.74;48.63;102449.91;10406984;28;20049;-77
2022/07/16 15:19:26;;;;;;;3.20;2.08;;;;;;;21.86;49.43;102439.47;10394879;28;20052;-77
2022/07/16 15:24:28;;;;;;;0.00;0.00;;;;;;;22.37;50.50;102443.97;10397594;28;20064;-78
2022/07/16 15:29:30;;;;;;;0.00;0.00;;;;;;;22.21;49.03;102450.06;10406090;28;20160;-77
2022/07/16 15:34:32;;;;;;;0.00;0.00;;;;;;;21.96;47.55;102444.75;10401117;28;20449;-78
2022/07/16 15:39:39;;;;;;;0.00;0.00;;;;;;;21.90;46.55;102455.22;10412274;28;20045;-78
2022/07/16 15:44:42;;;;;;;0.00;0.00;;;;;;;22.26;50.11;102457.09;10417390;28;20053;-78
2022/07/16 15:49:44;;;;;;;0.08;0.08;;;;;;;21.87;47.59;102448.22;10412032;28;20080;-78
2022/07/16 15:54:46;;;;;;;0.00;0.00;;;;;;;21.92;49.79;102450.88;10412913;28;20526;-77
2022/07/16 15:59:48;;;;;;;0.00;0.00;;;;;;;21.81;46.84;102462.19;10408301;28;20046;-77
2022/07/16 16:04:51;;;;;;;0.00;0.00;;;;;;;21.85;48.99;102449.97;10404657;28;20507;-77
2022/07/16 16:09:53;;;;;;;0.00;0.00;;;;;;;22.05;50.47;102447.41;10421952;28;20140;-78
2022/07/16 16:14:55;;;;;;;0.00;0.00;;;;;;;22.01;50.01;102459.63;10407235;28;20050;-78
2022/07/16 16:19:56;;;;;;;0.00;0.00;;;;;;;21.79;49.48;102465.69;10404562;28;20040;-78
2022/07/16 16:24:58;;;;;;;0.00;0.00;;;;;;;21.64;49.96;102466.47;10403014;28;20041;-78
2022/07/16 16:30:08;;;;;;;0.00;0.00;;;;;;;21.47;50.12;102469.88;10409847;28;20071;-78
2022/07/16 16:35:10;;;;;;;0.00;0.00;;;;;;;21.56;53.39;102477.78;10401610;28;20069;-78
2022/07/16 16:40:13;;;;;;;0.00;0.00;;;;;;;21.57;53.70;102476.09;10417475;28;20041;-78
2022/07/16 16:45:15;;;;;;;0.00;0.00;;;;;;;21.10;53.24;102476.63;10401545;28;20456;-78
2022/07/16 16:50:18;;;;;;;0.00;0.00;;;;;;;21.21;55.22;102470.59;10390199;28;20041;-77
2022/07/16 16:55:21;;;;;;;0.15;0.00;;;;;;;21.19;50.64;102467.09;10400575;28;20052;-77
2022/07/16 17:00:22;;;;;;;0.00;0.00;;;;;;;21.12;52.04;102467.03;10396381;28;20144;-76
2022/07/16 17:05:24;;;;;;;0.28;0.00;;;;;;;21.24;52.20;102481.13;10404806;28;20055;-76
2022/07/16 17:10:26;;;;;;;0.05;0.03;;;;;;;21.18;52.59;102470.59;10392081;28;20052;-77
2022/07/16 17:15:28;;;;;;;0.13;0.13;;;;;;;21.20;53.65;102474.06;10402462;28;20125;-77
2022/07/16 17:20:34;;;;;;;0.00;0.00;;;;;;;21.21;53.17;102478.47;10403642;28;20079;-77
2022/07/16 17:25:36;;;;;;;0.35;0.17;;;;;;;21.19;52.64;102474.06;10397654;28;20155;-77
2022/07/16 17:30:38;;;;;;;0.10;0.00;;;;;;;20.91;51.31;102476.50;10386551;28;20076;-78
2022/07/16 17:35:39;;;;;;;0.00;0.00;;;;;;;20.85;50.62;102477.31;10403052;28;20044;-79
2022/07/16 17:40:48;;;;;;;0.10;0.10;;;;;;;20.70;51.82;102477.16;10393875;28;20400;-79
2022/07/16 17:45:51;;;;;;;0.10;0.10;;;;;;;20.70;53.43;102482.41;10403202;28;20077;-78
2022/07/16 17:50:52;;;;;;;0.10;0.10;;;;;;;20.60;56.21;102492.78;10413437;28;20049;-78
2022/07/16 17:55:56;;;;;;;0.00;0.00;;;;;;;20.47;56.26;102496.16;10412869;28;20053;-78
2022/07/16 18:01:01;;;;;;;0.00;0.00;;;;;;;20.22;58.33;102495.03;10428786;28;20069;-79
2022/07/16 18:06:03;;;;;;;0.00;0.00;;;;;;;20.02;57.29;102507.88;10410450;28;20146;-79
2022/07/16 18:11:07;;;;;;;0.00;0.00;;;;;;;19.84;59.25;102508.47;10427456;28;20107;-78
2022/07/16 18:16:09;;;;;;;0.00;0.00;;;;;;;19.79;60.20;102511.03;10430403;28;20041;-78
2022/07/16 18:21:11;;;;;;;0.10;0.10;;;;;;;19.58;60.83;102528.19;10414266;28;20128;-78
2022/07/16 18:26:13;;;;;;;0.00;0.00;;;;;;;19.48;60.25;102528.91;10426197;28;20045;-79
2022/07/16 18:31:18;;;;;;;0.00;0.00;;;;;;;19.44;62.06;102529.72;10443553;28;20049;-78
2022/07/16 18:36:20;;;;;;;0.30;0.17;;;;;;;19.24;61.29;102532.94;10447873;28;20033;-78
2022/07/16 18:41:22;;;;;;;0.00;0.00;;;;;;;19.22;62.67;102534.63;10420612;28;20116;-78
2022/07/16 18:46:24;;;;;;;0.32;0.10;;;;;;;19.02;63.77;102537.78;10420144;28;20045;-78
2022/07/16 18:51:26;;;;;;;0.22;0.20;;;;;;;18.78;63.98;102542.56;10418278;28;20060;-79
2022/07/16 18:56:28;;;;;;;0.15;0.13;;;;;;;18.72;66.75;102538.09;10419871;28;20128;-78
2022/07/16 19:01:30;;;;;;;0.00;0.00;;;;;;;18.50;67.78;102547.28;10417854;28;20045;-78
2022/07/16 19:06:33;;;;;;;0.00;0.00;;;;;;;18.37;70.21;102536.56;10418365;28;20120;-79
2022/07/16 19:11:35;;;;;;;0.00;0.00;;;;;;;18.23;70.06;102548.47;10419728;28;20038;-77
2022/07/16 19:16:37;;;;;;;0.00;0.00;;;;;;;17.94;72.81;102550.44;10417725;28;20144;-78
2022/07/16 19:21:39;;;;;;;0.20;0.20;;;;;;;17.88;73.07;102561.63;10418866;28;20050;-78
2022/07/16 19:26:43;;;;;;;0.00;0.00;;;;;;;17.38;76.51;102560.50;10418778;28;20104;-78
2022/07/16 19:31:45;;;;;;;0.80;0.20;;;;;;;17.35;75.61;102565.63;10416189;28;20488;-78
2022/07/16 19:36:46;;;;;;;0.00;0.00;;;;;;;17.12;77.00;102568.53;10399312;28;20042;-78
2022/07/16 19:41:49;;;;;;;0.17;0.17;;;;;;;16.98;78.73;102576.84;10389032;28;20477;-78
2022/07/16 19:46:50;;;;;;;0.00;0.00;;;;;;;16.69;83.87;102572.59;10412850;28;20041;-79
2022/07/16 19:51:52;;;;;;;0.45;0.17;;;;;;;16.51;90.10;102580.78;10412167;28;20532;-79
2022/07/16 20:02:15;;;;;;;0.38;0.25;;;;;;;16.27;87.57;102583.56;10417226;28;20530;-79
2022/07/16 20:07:17;;;;;;;1.75;0.10;;;;;;;16.20;90.83;102591.97;10408303;28;20038;-80
2022/07/16 20:12:19;;;;;;;0.17;0.00;;;;;;;16.01;90.97;102607.03;10412033;28;20120;-79
2022/07/16 20:17:20;;;;;;;0.00;0.00;;;;;;;15.77;92.95;102615.81;10408287;28;20057;-79
2022/07/16 20:22:23;;;;;;;0.30;0.30;;;;;;;15.54;94.86;102615.94;10411650;28;20053;-79
2022/07/16 20:27:24;;;;;;;0.00;0.00;;;;;;;15.49;94.57;102614.91;10411436;28;20128;-79
2022/07/16 20:32:26;;;;;;;0.00;0.00;;;;;;;15.29;94.83;102619.44;10409902;28;20081;-79
2022/07/16 20:37:28;;;;;;;0.00;0.00;;;;;;;15.28;93.52;102622.00;10417246;28;20048;-79
2022/07/16 20:42:32;;;;;;;2.45;0.20;;;;;;;15.02;95.22;102629.75;10418982;28;20135;-78
2022/07/16 20:47:35;;;;;;;0.30;0.17;;;;;;;14.96;95.60;102619.16;10411359;28;20045;-78
2022/07/16 20:52:37;;;;;;;0.00;0.00;;;;;;;14.79;95.76;102634.13;10410418;28;20053;-78
2022/07/16 20:57:39;;;;;;;0.20;0.10;;;;;;;14.63;97.20;102635.25;10402600;28;20511;-78
2022/07/16 21:02:44;;;;;;;0.05;0.05;;;;;;;14.49;99.46;102642.53;10408868;28;20049;-78
2022/07/16 21:07:45;;;;;;;0.47;0.03;;;;;;;14.27;100.00;102636.53;10410200;28;20038;-78
2022/07/16 21:12:47;;;;;;;0.10;0.00;;;;;;;14.03;100.00;102637.31;10413280;28;20037;-77
2022/07/16 21:17:49;;;;;;;0.10;0.00;;;;;;;13.61;100.00;102648.59;10407741;28;20065;-78
2022/07/16 21:22:55;;;;;;;0.00;0.00;;;;;;;13.60;100.00;102641.66;10389906;28;20049;-78
2022/07/16 21:27:57;;;;;;;0.00;0.00;;;;;;;13.69;100.00;102645.44;10395160;28;20071;-78
2022/07/16 21:32:59;;;;;;;0.00;0.00;;;;;;;13.50;100.00;102655.06;10395452;28;20076;-78
2022/07/16 21:38:00;;;;;;;0.10;0.10;;;;;;;13.30;100.00;102662.81;10414382;28;20408;-77
2022/07/16 21:43:03;;;;;;;0.55;0.00;;;;;;;13.32;100.00;102666.34;10415763;28;20037;-78
2022/07/16 21:48:05;;;;;;;0.00;0.00;;;;;;;13.25;100.00;102671.22;10391177;28;20038;-78
2022/07/16 21:53:07;;;;;;;0.10;0.10;;;;;;;13.06;100.00;102672.13;10407400;28;20045;-78
2022/07/16 21:58:08;;;;;;;0.00;0.00;;;;;;;12.89;100.00;102664.50;10420300;28;20026;-77
2022/07/16 22:03:10;;;;;;;0.05;0.05;;;;;;;12.74;100.00;102676.72;10403007;28;20076;-77
2022/07/16 22:08:12;;;;;;;0.38;0.10;;;;;;;12.40;100.00;102678.66;10412144;28;20045;-78
2022/07/16 22:13:15;;;;;;;0.10;0.10;;;;;;;12.23;100.00;102680.44;10413774;28;20029;-78
2022/07/16 22:18:20;;;;;;;0.20;0.20;;;;;;;12.27;100.00;102687.50;10416358;28;20038;-78
2022/07/16 22:23:26;;;;;;;0.00;0.00;;;;;;;12.11;100.00;102685.00;10417014;28;20146;-78
2022/07/16 22:28:28;;;;;;;0.00;0.00;;;;;;;12.12;100.00;102689.38;10412405;28;20477;-78
2022/07/16 22:33:30;;;;;;;0.52;0.10;;;;;;;11.89;100.00;102694.25;10413218;28;20045;-77
2022/07/16 22:38:31;;;;;;;0.10;0.05;;;;;;;11.81;100.00;102691.31;10415573;28;20049;-77
2022/07/16 22:43:33;;;;;;;0.13;0.13;;;;;;;11.80;100.00;102691.25;10426189;28;20048;-78
2022/07/16 22:48:38;;;;;;;0.15;0.15;;;;;;;11.61;100.00;102692.03;10412211;28;20044;-77
2022/07/16 22:53:40;;;;;;;0.00;0.00;;;;;;;11.53;100.00;102696.78;10413607;28;20554;-77
2022/07/16 22:58:42;;;;;;;0.00;0.00;;;;;;;11.42;100.00;102698.81;10407431;28;20488;-78
2022/07/16 23:03:44;;;;;;;0.00;0.00;;;;;;;11.41;100.00;102705.69;10411397;28;20061;-77
2022/07/16 23:08:46;;;;;;;0.20;0.15;;;;;;;11.32;100.00;102694.88;10411767;28;20107;-78
2022/07/16 23:13:48;;;;;;;0.00;0.00;;;;;;;11.31;100.00;102706.00;10414205;28;20047;-78
2022/07/16 23:18:50;;;;;;;0.00;0.00;;;;;;;11.32;100.00;102710.38;10412523;28;20037;-78
2022/07/16 23:23:52;;;;;;;0.57;0.25;;;;;;;10.97;100.00;102709.41;10414007;28;20044;-78
2022/07/16 23:28:54;;;;;;;0.20;0.15;;;;;;;11.02;100.00;102710.53;10395865;28;20046;-78
2022/07/16 23:33:56;;;;;;;0.35;0.20;;;;;;;11.07;100.00;102706.50;10398744;28;20078;-77
2022/07/16 23:38:58;;;;;;;0.00;0.00;;;;;;;10.94;100.00;102712.72;10417719;28;20057;-76